createdAt,value
2022-08-26T00:02:16.830Z,5.30
2022-08-26T00:04:54.398Z,5.00
2022-08-26T00:07:28.285Z,5.20
2022-08-26T00:10:03.180Z,5.10
2022-08-26T00:12:37.678Z,5.50
2022-08-26T00:15:15.150Z,5.70
2022-08-26T00:17:49.107Z,5.50
2022-08-26T00:20:27.319Z,5.30
2022-08-26T00:23:02.019Z,5.40
2022-08-26T00:25:38.117Z,5.40
2022-08-26T00:28:16.797Z,5.80
2022-08-26T00:30:53.032Z,6.20
2022-08-26T00:33:47.247Z,7.50
2022-08-26T00:36:21.326Z,7.80
2022-08-26T00:39:07.449Z,6.70
2022-08-26T00:41:42.294Z,6.90
2022-08-26T00:44:18.565Z,7.50
2022-08-26T00:46:54.813Z,6.80
2022-08-26T00:49:33.192Z,7.20
2022-08-26T00:52:15.329Z,7.00
2022-08-26T00:54:54.838Z,6.90
2022-08-26T00:57:29.455Z,8.40
2022-08-26T01:00:08.433Z,8.00
2022-08-26T01:02:46.851Z,7.00
2022-08-26T01:05:21.962Z,6.20
2022-08-26T01:07:58.390Z,6.10
2022-08-26T01:10:46.359Z,7.00
2022-08-26T01:13:21.615Z,7.20
2022-08-26T01:16:18.396Z,6.50
2022-08-26T01:19:22.234Z,6.10
2022-08-26T01:22:07.441Z,7.10
2022-08-26T01:24:58.470Z,5.80
2022-08-26T01:27:42.130Z,5.50
2022-08-26T01:30:22.464Z,5.80
2022-08-26T01:33:12.708Z,5.20
2022-08-26T01:36:08.433Z,5.70
2022-08-26T01:38:46.145Z,5.20
2022-08-26T01:41:23.736Z,5.50
2022-08-26T01:44:06.848Z,4.60
2022-08-26T01:46:45.126Z,5.50
2022-08-26T01:49:21.235Z,5.30
2022-08-26T01:51:58.629Z,5.90
2022-08-26T01:54:35.880Z,5.30
2022-08-26T01:57:10.101Z,5.00
2022-08-26T01:59:46.916Z,5.60
2022-08-26T02:02:20.795Z,5.00
2022-08-26T02:05:04.022Z,5.30
2022-08-26T02:07:37.689Z,5.50
2022-08-26T02:10:12.830Z,5.00
2022-08-26T02:13:00.504Z,5.70
2022-08-26T02:15:34.758Z,7.70
2022-08-26T02:18:14.083Z,5.40
2022-08-26T02:20:58.657Z,5.50
2022-08-26T02:23:42.030Z,5.50
2022-08-26T02:26:19.947Z,5.70
2022-08-26T02:29:01.748Z,5.40
2022-08-26T02:31:35.733Z,5.90
2022-08-26T02:34:16.005Z,5.50
2022-08-26T02:36:49.783Z,5.40
2022-08-26T02:39:37.252Z,5.20
2022-08-26T02:42:14.297Z,6.20
2022-08-26T02:44:53.187Z,6.10
2022-08-26T02:47:29.348Z,5.20
2022-08-26T02:50:06.813Z,5.80
2022-08-26T02:52:41.824Z,6.00
2022-08-26T02:55:18.970Z,5.50
2022-08-26T02:57:55.461Z,5.60
2022-08-26T03:00:29.213Z,5.60
2022-08-26T03:03:03.015Z,5.00
2022-08-26T03:05:37.334Z,5.70
2022-08-26T03:08:12.181Z,5.80
2022-08-26T03:10:46.748Z,5.40
2022-08-26T03:13:25.109Z,5.30
2022-08-26T03:15:59.140Z,6.50
2022-08-26T03:18:33.585Z,6.20
2022-08-26T03:21:11.261Z,5.80
2022-08-26T03:23:48.740Z,7.70
2022-08-26T03:26:30.388Z,6.30
2022-08-26T03:29:32.923Z,5.60
2022-08-26T03:32:07.435Z,6.10
2022-08-26T03:34:40.975Z,5.40
2022-08-26T03:37:34.621Z,6.00
2022-08-26T03:40:14.088Z,5.60
2022-08-26T03:42:58.910Z,5.80
2022-08-26T03:45:33.259Z,5.80
2022-08-26T03:48:07.167Z,5.90
2022-08-26T03:50:43.737Z,5.10
2022-08-26T03:53:17.021Z,6.00
2022-08-26T03:56:15.145Z,5.50
2022-08-26T03:58:51.595Z,5.80
2022-08-26T04:01:25.764Z,5.80
2022-08-26T04:04:00.644Z,5.90
2022-08-26T04:06:36.838Z,6.50
2022-08-26T04:09:13.621Z,5.60
2022-08-26T04:11:50.708Z,5.90
2022-08-26T04:14:27.701Z,6.10
2022-08-26T04:17:01.142Z,6.70
2022-08-26T04:19:34.541Z,5.50
2022-08-26T04:22:08.834Z,5.90
2022-08-26T04:24:46.823Z,6.10
2022-08-26T04:27:20.535Z,6.30
2022-08-26T04:30:06.194Z,5.90
2022-08-26T04:32:42.151Z,6.10
2022-08-26T04:35:16.159Z,6.10
2022-08-26T04:37:50.789Z,6.10
2022-08-26T04:40:28.067Z,6.00
2022-08-26T04:43:06.151Z,6.20
2022-08-26T04:45:41.944Z,6.00
2022-08-26T04:48:16.807Z,5.60
2022-08-26T04:50:50.586Z,5.90
2022-08-26T04:53:25.378Z,6.00
2022-08-26T04:55:59.149Z,6.30
2022-08-26T04:58:36.001Z,5.90
2022-08-26T05:01:19.610Z,6.50
2022-08-26T05:03:53.298Z,6.70
2022-08-26T05:06:48.589Z,6.40
2022-08-26T05:09:24.674Z,6.10
2022-08-26T05:11:58.707Z,6.20
2022-08-26T05:14:32.243Z,5.60
2022-08-26T05:17:08.670Z,6.20
2022-08-26T05:19:42.852Z,6.40
2022-08-26T05:22:21.675Z,6.30
2022-08-26T05:24:58.989Z,6.10
2022-08-26T05:27:32.748Z,7.10
2022-08-26T05:30:07.868Z,6.70
2022-08-26T05:35:20.338Z,7.80
2022-08-26T05:37:59.390Z,8.00
2022-08-26T05:40:35.283Z,9.10
2022-08-26T05:43:10.926Z,8.30
2022-08-26T05:45:47.133Z,7.60
2022-08-26T05:48:24.454Z,8.60
2022-08-26T05:50:58.658Z,8.90
2022-08-26T05:53:32.489Z,8.80
2022-08-26T05:56:07.354Z,7.10
2022-08-26T05:58:43.054Z,5.50
2022-08-26T06:01:24.135Z,5.40
2022-08-26T06:04:01.837Z,6.50
2022-08-26T06:06:56.253Z,6.60
2022-08-26T06:09:29.750Z,5.90
2022-08-26T06:12:08.182Z,5.80
2022-08-26T06:14:41.313Z,5.70
2022-08-26T06:17:15.298Z,5.20
2022-08-26T06:19:48.971Z,5.30
2022-08-26T06:22:40.012Z,6.00
2022-08-26T06:25:31.211Z,5.40
2022-08-26T06:28:05.589Z,5.30
2022-08-26T06:30:42.928Z,5.80
2022-08-26T06:33:16.620Z,5.30
2022-08-26T06:35:51.297Z,5.30
2022-08-26T06:38:24.729Z,5.90
2022-08-26T06:40:59.775Z,5.50
2022-08-26T06:43:33.802Z,5.80
2022-08-26T06:46:10.852Z,5.30
2022-08-26T06:51:19.460Z,5.70
2022-08-26T06:53:59.636Z,5.50
2022-08-26T06:59:28.836Z,5.80
2022-08-26T07:02:10.912Z,5.60
2022-08-26T07:04:47.831Z,5.50
2022-08-26T07:07:22.174Z,5.90
2022-08-26T07:09:56.395Z,6.30
2022-08-26T07:12:30.370Z,5.90
2022-08-26T07:15:03.952Z,6.40
2022-08-26T07:17:38.113Z,6.10
2022-08-26T07:20:13.346Z,6.30
2022-08-26T07:22:50.183Z,6.50
2022-08-26T07:25:24.111Z,7.10
2022-08-26T07:27:58.344Z,7.30
2022-08-26T07:30:34.702Z,7.30
2022-08-26T07:33:08.212Z,6.60
2022-08-26T07:35:42.057Z,7.30
2022-08-26T07:38:15.528Z,9.00
2022-08-26T07:40:49.066Z,7.20
2022-08-26T07:43:22.900Z,7.30
2022-08-26T07:45:58.108Z,7.00
2022-08-26T07:48:31.667Z,6.30
2022-08-26T07:51:08.194Z,5.70
2022-08-26T07:53:41.769Z,5.70
2022-08-26T07:56:16.265Z,5.20
2022-08-26T07:58:51.453Z,5.20
2022-08-26T08:01:46.717Z,5.60
2022-08-26T08:04:26.103Z,5.30
2022-08-26T08:07:05.319Z,6.10
2022-08-26T08:09:49.819Z,5.50
2022-08-26T08:12:44.175Z,5.60
2022-08-26T08:15:26.925Z,5.30
2022-08-26T08:18:04.221Z,5.20
2022-08-26T08:20:38.348Z,5.00
2022-08-26T08:23:20.826Z,5.20
2022-08-26T08:26:15.695Z,6.10
2022-08-26T08:28:58.180Z,5.80
2022-08-26T08:34:29.279Z,6.60
2022-08-26T08:37:04.369Z,5.40
2022-08-26T08:39:41.773Z,6.40
2022-08-26T08:42:45.953Z,5.20
2022-08-26T08:45:36.291Z,5.80
2022-08-26T08:48:15.537Z,6.30
2022-08-26T08:50:52.142Z,5.30
2022-08-26T08:53:35.240Z,5.50
2022-08-26T08:56:20.970Z,5.20
2022-08-26T08:59:04.943Z,5.40
2022-08-26T09:01:54.166Z,5.40
2022-08-26T09:05:08.223Z,5.70
2022-08-26T09:07:50.667Z,5.00
2022-08-26T09:10:37.235Z,5.60
2022-08-26T09:13:16.347Z,5.50
2022-08-26T09:16:00.756Z,5.00
2022-08-26T09:18:54.467Z,5.60
2022-08-26T09:21:30.912Z,5.20
2022-08-26T09:24:14.018Z,5.60
2022-08-26T09:26:49.188Z,5.30
2022-08-26T09:29:50.232Z,5.10
2022-08-26T09:32:27.776Z,5.80
2022-08-26T09:35:07.747Z,5.40
2022-08-26T09:40:34.616Z,5.50
2022-08-26T09:43:22.708Z,5.50
2022-08-26T09:46:12.582Z,5.20
2022-08-26T09:48:53.029Z,5.80
2022-08-26T09:51:34.932Z,5.90
2022-08-26T09:54:30.093Z,5.30
2022-08-26T09:57:27.675Z,5.20
2022-08-26T10:00:02.793Z,5.50
2022-08-26T10:02:47.668Z,6.90
2022-08-26T10:05:43.660Z,5.90
2022-08-26T10:08:35.707Z,6.10
2022-08-26T10:11:19.762Z,6.50
2022-08-26T10:14:00.395Z,6.00
2022-08-26T10:16:41.786Z,6.10
2022-08-26T10:19:19.102Z,6.20
2022-08-26T10:22:01.794Z,7.20
2022-08-26T10:24:39.951Z,6.70
2022-08-26T10:27:25.382Z,6.00
2022-08-26T10:30:07.271Z,5.80
2022-08-26T10:32:47.258Z,6.10
2022-08-26T10:35:24.213Z,5.90
2022-08-26T10:38:21.866Z,6.00
2022-08-26T10:41:02.070Z,6.30
2022-08-26T10:43:43.636Z,5.50
2022-08-26T10:46:22.784Z,6.10
2022-08-26T10:49:15.787Z,5.70
2022-08-26T10:51:59.798Z,5.60
2022-08-26T10:54:54.902Z,6.10
2022-08-26T10:57:41.105Z,5.70
2022-08-26T11:00:38.561Z,5.50
2022-08-26T11:03:27.994Z,5.70
2022-08-26T11:06:34.194Z,5.10
2022-08-26T11:09:11.849Z,5.60
2022-08-26T11:11:54.498Z,6.00
2022-08-26T11:14:58.851Z,5.40
2022-08-26T11:18:01.978Z,5.90
2022-08-26T11:20:42.193Z,6.00
2022-08-26T11:26:56.339Z,6.00
2022-08-26T11:30:05.771Z,6.50
2022-08-26T11:33:00.956Z,6.10
2022-08-26T11:35:54.007Z,5.90
2022-08-26T11:38:31.020Z,6.80
2022-08-26T11:41:14.190Z,5.80
2022-08-26T11:43:52.469Z,6.00
2022-08-26T11:46:36.344Z,6.90
2022-08-26T11:49:13.345Z,6.00
2022-08-26T11:51:48.363Z,6.70
2022-08-26T11:54:30.777Z,6.20
2022-08-26T11:57:15.066Z,7.00
2022-08-26T11:59:51.736Z,6.20
2022-08-26T12:02:28.298Z,6.20
2022-08-26T12:05:05.000Z,6.20
2022-08-26T12:07:38.940Z,6.30
2022-08-26T12:10:33.898Z,6.00
2022-08-26T12:13:26.464Z,6.10
2022-08-26T12:16:01.986Z,6.50
2022-08-26T12:18:38.433Z,5.70
2022-08-26T12:21:22.446Z,6.20
2022-08-26T12:23:59.655Z,5.80
2022-08-26T12:26:37.008Z,6.00
2022-08-26T12:29:26.660Z,6.30
2022-08-26T12:32:14.743Z,5.90
2022-08-26T12:34:50.660Z,6.20
2022-08-26T12:37:24.527Z,6.10
2022-08-26T12:40:41.285Z,5.80
2022-08-26T12:43:17.582Z,5.90
2022-08-26T12:46:09.368Z,5.60
2022-08-26T12:48:49.259Z,5.80
2022-08-26T12:51:28.194Z,5.60
2022-08-26T12:54:07.253Z,5.50
2022-08-26T12:56:43.422Z,5.70
2022-08-26T12:59:26.310Z,5.30
2022-08-26T13:02:02.755Z,5.80
2022-08-26T13:04:46.568Z,5.00
2022-08-26T13:07:25.882Z,5.30
2022-08-26T13:10:01.348Z,5.80
2022-08-26T13:12:38.562Z,5.50
2022-08-26T13:15:12.883Z,5.40
2022-08-26T13:17:46.346Z,5.80
2022-08-26T13:20:20.549Z,5.90
2022-08-26T13:23:00.988Z,5.40
2022-08-26T13:25:34.796Z,5.60
2022-08-26T13:28:08.747Z,5.40
2022-08-26T13:30:44.814Z,10.50
2022-08-26T13:33:19.220Z,6.50
2022-08-26T13:35:57.288Z,6.10
2022-08-26T13:38:34.717Z,8.00
2022-08-26T13:41:13.325Z,6.30
2022-08-26T13:43:49.559Z,6.40
2022-08-26T13:46:32.663Z,6.50
2022-08-26T13:49:07.341Z,6.90
2022-08-26T13:51:41.063Z,6.50
2022-08-26T13:54:14.810Z,7.30
2022-08-26T13:56:48.604Z,6.80
2022-08-26T13:59:22.789Z,6.90
2022-08-26T14:01:56.706Z,6.70
2022-08-26T14:04:32.200Z,7.60
2022-08-26T14:07:05.933Z,7.20
2022-08-26T14:09:39.314Z,7.00
2022-08-26T14:12:16.968Z,7.50
2022-08-26T14:14:50.651Z,6.80
2022-08-26T14:17:26.763Z,7.40
2022-08-26T14:20:04.583Z,7.50
2022-08-26T14:22:43.726Z,7.60
2022-08-26T14:25:35.038Z,7.00
2022-08-26T14:28:09.274Z,7.50
2022-08-26T14:30:44.467Z,6.70
2022-08-26T14:33:19.942Z,7.50
2022-08-26T14:38:48.849Z,7.50
2022-08-26T14:41:23.397Z,8.10
2022-08-26T14:44:03.912Z,7.00
2022-08-26T14:46:44.340Z,7.20
2022-08-26T14:49:22.106Z,7.60
2022-08-26T14:51:55.681Z,7.00
2022-08-26T14:54:29.811Z,7.90
2022-08-26T14:57:05.314Z,7.30
2022-08-26T14:59:45.467Z,7.70
2022-08-26T15:02:33.295Z,7.30
2022-08-26T15:05:08.888Z,8.70
2022-08-26T15:07:42.234Z,7.10
2022-08-26T15:10:17.241Z,7.10
2022-08-26T15:12:50.911Z,7.70
2022-08-26T15:15:24.253Z,7.70
2022-08-26T15:17:59.918Z,7.70
2022-08-26T15:23:12.384Z,7.20
2022-08-26T15:25:49.163Z,7.20
2022-08-26T15:28:23.288Z,7.70
2022-08-26T15:30:56.554Z,7.60
2022-08-26T15:33:33.425Z,8.10
2022-08-26T15:36:08.933Z,7.50
2022-08-26T15:38:43.915Z,7.60
2022-08-26T15:41:17.384Z,7.30
2022-08-26T15:43:50.808Z,7.30
2022-08-26T15:46:24.089Z,7.30
2022-08-26T15:48:57.446Z,6.80
2022-08-26T15:51:35.753Z,7.70
2022-08-26T15:54:21.096Z,7.50
2022-08-26T15:56:55.251Z,6.90
2022-08-26T15:59:38.876Z,7.90
2022-08-26T16:02:21.126Z,7.70
2022-08-26T16:04:54.676Z,7.00
2022-08-26T16:07:30.520Z,7.20
2022-08-26T16:10:04.427Z,6.70
2022-08-26T16:12:40.276Z,7.30
2022-08-26T16:15:15.164Z,7.50
2022-08-26T16:17:55.754Z,7.40
2022-08-26T16:20:29.134Z,7.90
2022-08-26T16:23:03.364Z,7.20
2022-08-26T16:25:37.230Z,6.40
2022-08-26T16:28:11.567Z,7.60
2022-08-26T16:30:46.284Z,6.60
2022-08-26T16:33:21.562Z,12.50
2022-08-26T16:36:03.134Z,6.80
2022-08-26T16:38:37.930Z,6.80
2022-08-26T16:41:14.359Z,7.50
2022-08-26T16:43:48.471Z,7.10
2022-08-26T16:46:33.102Z,6.30
2022-08-26T16:49:07.283Z,7.10
2022-08-26T16:51:41.050Z,6.90
2022-08-26T16:54:14.607Z,6.40
2022-08-26T16:56:51.580Z,6.50
2022-08-26T16:59:25.631Z,6.50
2022-08-26T17:01:59.228Z,6.90
2022-08-26T17:04:33.112Z,5.90
2022-08-26T17:07:06.884Z,6.00
2022-08-26T17:09:41.886Z,6.30
2022-08-26T17:12:15.243Z,6.40
2022-08-26T17:14:48.878Z,5.90
2022-08-26T17:17:23.181Z,6.10
2022-08-26T17:19:56.520Z,6.00
2022-08-26T17:22:34.670Z,6.10
2022-08-26T17:25:23.130Z,6.60
2022-08-26T17:28:00.532Z,6.00
2022-08-26T17:30:34.688Z,6.00
2022-08-26T17:33:11.018Z,5.70
2022-08-26T17:35:45.064Z,6.30
2022-08-26T17:38:19.102Z,6.20
2022-08-26T17:40:53.269Z,5.50
2022-08-26T17:43:27.836Z,6.20
2022-08-26T17:46:07.387Z,6.20
2022-08-26T17:48:42.262Z,6.70
2022-08-26T17:51:17.573Z,6.60
2022-08-26T17:53:52.630Z,6.70
2022-08-26T17:56:46.141Z,6.40
2022-08-26T17:59:20.289Z,6.60
2022-08-26T18:01:55.905Z,7.30
2022-08-26T18:04:29.563Z,7.60
2022-08-26T18:07:03.152Z,7.10
2022-08-26T18:09:36.412Z,7.50
2022-08-26T18:12:11.508Z,7.10
2022-08-26T18:14:45.675Z,7.30
2022-08-26T18:17:19.673Z,6.90
2022-08-26T18:19:55.873Z,7.40
2022-08-26T18:22:29.398Z,7.40
2022-08-26T18:25:05.238Z,7.00
2022-08-26T18:27:40.177Z,7.70
2022-08-26T18:30:20.997Z,7.10
2022-08-26T18:32:55.291Z,7.40
2022-08-26T18:35:30.661Z,7.40
2022-08-26T18:38:11.026Z,7.60
2022-08-26T18:40:52.709Z,7.30
2022-08-26T18:43:26.427Z,7.90
2022-08-26T18:46:07.283Z,8.00
2022-08-26T18:48:41.850Z,8.10
2022-08-26T18:51:21.425Z,8.00
2022-08-26T18:53:55.254Z,8.40
2022-08-26T18:56:29.311Z,7.40
2022-08-26T18:59:04.020Z,7.60
2022-08-26T19:01:39.582Z,7.40
2022-08-26T19:04:15.419Z,7.20
2022-08-26T19:06:51.182Z,7.60
2022-08-26T19:09:26.731Z,7.70
2022-08-26T19:12:04.100Z,8.10
2022-08-26T19:14:39.363Z,10.10
2022-08-26T19:17:13.920Z,8.60
2022-08-26T19:19:48.170Z,8.90
2022-08-26T19:22:22.901Z,8.90
2022-08-26T19:24:59.920Z,8.20
2022-08-26T19:27:34.700Z,8.50
2022-08-26T19:30:10.638Z,8.90
2022-08-26T19:32:44.943Z,8.70
2022-08-26T19:35:19.154Z,8.70
2022-08-26T19:37:53.270Z,8.00
2022-08-26T19:40:27.305Z,11.30
2022-08-26T19:43:01.257Z,9.10
2022-08-26T19:45:35.662Z,8.00
2022-08-26T19:48:12.100Z,8.40
2022-08-26T19:50:47.203Z,8.90
2022-08-26T19:53:21.084Z,8.60
2022-08-26T19:55:54.850Z,9.30
2022-08-26T19:58:28.719Z,8.90
2022-08-26T20:01:03.041Z,9.10
2022-08-26T20:03:37.427Z,9.90
2022-08-26T20:06:13.480Z,9.70
2022-08-26T20:08:48.189Z,9.40
2022-08-26T20:11:24.789Z,9.20
2022-08-26T20:14:01.342Z,8.90
2022-08-26T20:16:35.164Z,9.20
2022-08-26T20:19:27.493Z,9.70
2022-08-26T20:22:04.533Z,9.70
2022-08-26T20:24:38.380Z,9.20
2022-08-26T20:27:12.341Z,10.60
2022-08-26T20:29:46.905Z,10.30
2022-08-26T20:32:20.737Z,9.00
2022-08-26T20:34:56.060Z,9.70
2022-08-26T20:37:42.895Z,11.00
2022-08-26T20:40:21.576Z,11.40
2022-08-26T20:42:55.231Z,12.10
2022-08-26T20:45:29.236Z,11.00
2022-08-26T20:48:03.030Z,10.80
2022-08-26T20:50:37.717Z,12.10
2022-08-26T20:53:11.416Z,11.10
2022-08-26T20:55:50.772Z,11.40
2022-08-26T20:58:36.610Z,10.70
2022-08-26T21:01:20.918Z,11.00
2022-08-26T21:03:58.484Z,11.70
2022-08-26T21:06:35.318Z,10.10
2022-08-26T21:09:19.285Z,9.50
2022-08-26T21:12:12.840Z,13.80
2022-08-26T21:14:49.497Z,15.70
2022-08-26T21:17:23.827Z,14.40
2022-08-26T21:19:57.564Z,13.60
2022-08-26T21:22:32.360Z,11.90
2022-08-26T21:25:06.696Z,11.50
2022-08-26T21:27:43.047Z,11.20
2022-08-26T21:30:17.895Z,10.50
2022-08-26T21:32:51.861Z,11.10
2022-08-26T21:35:25.674Z,10.90
2022-08-26T21:37:59.292Z,9.70
2022-08-26T21:41:02.844Z,10.20
2022-08-26T21:43:40.131Z,10.60
2022-08-26T21:46:16.076Z,11.30
2022-08-26T21:49:12.059Z,9.90
2022-08-26T21:51:47.536Z,10.80
2022-08-26T21:54:24.461Z,9.80
2022-08-26T21:57:01.441Z,9.90
2022-08-26T21:59:35.160Z,9.50
2022-08-26T22:02:09.111Z,9.90
2022-08-26T22:04:45.708Z,10.00
2022-08-26T22:07:22.381Z,10.10
2022-08-26T22:09:56.463Z,10.40
2022-08-26T22:12:30.304Z,11.20
2022-08-26T22:15:04.192Z,10.40
2022-08-26T22:17:38.295Z,10.50
2022-08-26T22:20:16.502Z,10.60
2022-08-26T22:22:50.384Z,8.80
2022-08-26T22:25:27.679Z,9.00
2022-08-26T22:28:01.989Z,9.20
2022-08-26T22:30:35.996Z,9.00
2022-08-26T22:33:09.876Z,8.60
2022-08-26T22:36:03.963Z,7.90
2022-08-26T22:38:37.946Z,8.80
2022-08-26T22:41:24.642Z,8.50
2022-08-26T22:44:09.203Z,9.60
2022-08-26T22:46:55.871Z,9.20
2022-08-26T22:49:49.790Z,13.10
2022-08-26T22:52:32.625Z,12.00
2022-08-26T22:55:06.786Z,13.60
2022-08-26T22:58:00.503Z,13.10
2022-08-26T23:00:37.747Z,13.60
2022-08-26T23:03:31.602Z,14.70
2022-08-26T23:06:25.615Z,13.40
2022-08-26T23:09:20.391Z,13.70
2022-08-26T23:12:01.784Z,13.40
2022-08-26T23:14:37.987Z,11.10
2022-08-26T23:17:14.702Z,11.30
2022-08-26T23:19:51.305Z,11.70
2022-08-26T23:22:35.520Z,9.80
2022-08-26T23:25:11.355Z,10.40
2022-08-26T23:27:54.919Z,9.90
2022-08-26T23:30:39.014Z,10.00
2022-08-26T23:33:13.026Z,8.60
2022-08-26T23:36:07.143Z,9.80
2022-08-26T23:38:54.141Z,10.20
2022-08-26T23:41:38.722Z,9.70
2022-08-26T23:44:22.467Z,10.00
2022-08-26T23:47:08.125Z,9.30
2022-08-26T23:50:01.843Z,9.00
2022-08-26T23:53:09.434Z,9.60
2022-08-26T23:56:03.484Z,9.30
2022-08-26T23:58:37.340Z,9.70
